Terminal Aerodrome Forecast
Issued by NWS

Home | Current Version | Previous Version | Text Only | Print | Product List | Glossary Off
Versions: 1 2 3 4 5 6 7 8 9 10 11 12 13 14 15 16 17 18 19 20 21 22 23 24 25 26 27

000
FTUS43 KABR 242326
TAFATY
TAF
KATY 242326Z 2500/2524 08006KT 5SM -RA BR OVC015
      TEMPO 2500/2503 3SM RA BR BKN007
     FM250300 05008KT 4SM -RA BR OVC007
     FM251800 04009KT P6SM -SHRA OVC015=

USA.gov is the U.S. government's official web portal to all federal, state and local government web resources and services.